sensor_id;sensor_type;location;lat;lon;timestamp;P1;durP1;ratioP1;P2;durP2;ratioP2
14738;SDS011;7461;52.440;13.540;2023-05-27T00:00:08;11.10;;;6.53;;
14738;SDS011;7461;52.440;13.540;2023-05-27T00:02:37;10.43;;;6.63;;
14738;SDS011;7461;52.440;13.540;2023-05-27T00:05:04;13.63;;;5.85;;
14738;SDS011;7461;52.440;13.540;2023-05-27T00:07:32;7.60;;;5.85;;
14738;SDS011;7461;52.440;13.540;2023-05-27T00:09:59;11.13;;;6.75;;
14738;SDS011;7461;52.440;13.540;2023-05-27T00:12:26;13.82;;;7.13;;
14738;SDS011;7461;52.440;13.540;2023-05-27T00:14:53;11.25;;;6.38;;
14738;SDS011;7461;52.440;13.540;2023-05-27T00:17:21;11.63;;;5.38;;
14738;SDS011;7461;52.440;13.540;2023-05-27T00:19:50;8.82;;;5.68;;
14738;SDS011;7461;52.440;13.540;2023-05-27T00:22:19;10.82;;;5.82;;
14738;SDS011;7461;52.440;13.540;2023-05-27T00:24:46;7.63;;;5.75;;
14738;SDS011;7461;52.440;13.540;2023-05-27T00:27:13;10.77;;;5.53;;
14738;SDS011;7461;52.440;13.540;2023-05-27T00:29:40;7.60;;;5.45;;
14738;SDS011;7461;52.440;13.540;2023-05-27T00:32:06;10.02;;;5.53;;
14738;SDS011;7461;52.440;13.540;2023-05-27T00:34:35;6.47;;;5.40;;
14738;SDS011;7461;52.440;13.540;2023-05-27T00:37:02;9.77;;;5.95;;
14738;SDS011;7461;52.440;13.540;2023-05-27T00:39:30;8.40;;;5.30;;
14738;SDS011;7461;52.440;13.540;2023-05-27T00:41:57;8.32;;;6.30;;
14738;SDS011;7461;52.440;13.540;2023-05-27T00:44:24;9.48;;;5.68;;
14738;SDS011;7461;52.440;13.540;2023-05-27T00:46:51;11.57;;;5.75;;
14738;SDS011;7461;52.440;13.540;2023-05-27T00:49:18;12.35;;;5.70;;
14738;SDS011;7461;52.440;13.540;2023-05-27T00:51:47;8.05;;;6.43;;
14738;SDS011;7461;52.440;13.540;2023-05-27T00:54:14;7.65;;;6.47;;
14738;SDS011;7461;52.440;13.540;2023-05-27T00:56:41;8.75;;;5.20;;
14738;SDS011;7461;52.440;13.540;2023-05-27T00:59:08;15.52;;;6.13;;
14738;SDS011;7461;52.440;13.540;2023-05-27T01:01:35;9.38;;;6.50;;
14738;SDS011;7461;52.440;13.540;2023-05-27T01:04:04;12.80;;;6.63;;
14738;SDS011;7461;52.440;13.540;2023-05-27T01:06:34;7.50;;;5.13;;
14738;SDS011;7461;52.440;13.540;2023-05-27T01:09:11;11.13;;;5.72;;
14738;SDS011;7461;52.440;13.540;2023-05-27T01:11:44;6.40;;;5.20;;
14738;SDS011;7461;52.440;13.540;2023-05-27T01:14:16;5.13;;;4.72;;
14738;SDS011;7461;52.440;13.540;2023-05-27T01:16:44;7.63;;;5.70;;
14738;SDS011;7461;52.440;13.540;2023-05-27T01:19:13;8.15;;;5.68;;
14738;SDS011;7461;52.440;13.540;2023-05-27T01:21:47;8.52;;;6.05;;
14738;SDS011;7461;52.440;13.540;2023-05-27T01:24:17;8.00;;;5.35;;
14738;SDS011;7461;52.440;13.540;2023-05-27T01:26:45;11.85;;;6.28;;
14738;SDS011;7461;52.440;13.540;2023-05-27T01:29:11;10.70;;;6.53;;
14738;SDS011;7461;52.440;13.540;2023-05-27T01:31:41;8.77;;;6.95;;
14738;SDS011;7461;52.440;13.540;2023-05-27T01:34:13;9.10;;;6.13;;
14738;SDS011;7461;52.440;13.540;2023-05-27T01:36:45;13.70;;;5.72;;
14738;SDS011;7461;52.440;13.540;2023-05-27T01:39:18;12.55;;;7.03;;
14738;SDS011;7461;52.440;13.540;2023-05-27T01:41:45;9.48;;;6.88;;
14738;SDS011;7461;52.440;13.540;2023-05-27T01:44:13;13.35;;;6.65;;
14738;SDS011;7461;52.440;13.540;2023-05-27T01:46:43;12.80;;;6.28;;
14738;SDS011;7461;52.440;13.540;2023-05-27T01:49:10;12.93;;;6.60;;
14738;SDS011;7461;52.440;13.540;2023-05-27T01:51:37;7.10;;;5.05;;
14738;SDS011;7461;52.440;13.540;2023-05-27T01:54:04;10.30;;;5.55;;
14738;SDS011;7461;52.440;13.540;2023-05-27T01:56:32;7.07;;;6.38;;
14738;SDS011;7461;52.440;13.540;2023-05-27T01:58:59;9.68;;;6.65;;
14738;SDS011;7461;52.440;13.540;2023-05-27T02:01:26;7.20;;;5.78;;
14738;SDS011;7461;52.440;13.540;2023-05-27T02:03:54;11.07;;;5.53;;
14738;SDS011;7461;52.440;13.540;2023-05-27T02:06:21;8.40;;;6.63;;
14738;SDS011;7461;52.440;13.540;2023-05-27T02:08:48;11.18;;;5.22;;
14738;SDS011;7461;52.440;13.540;2023-05-27T02:11:14;13.02;;;6.85;;
14738;SDS011;7461;52.440;13.540;2023-05-27T02:13:43;7.47;;;5.55;;
14738;SDS011;7461;52.440;13.540;2023-05-27T02:16:10;9.82;;;6.82;;
14738;SDS011;7461;52.440;13.540;2023-05-27T02:18:37;8.27;;;7.03;;
14738;SDS011;7461;52.440;13.540;2023-05-27T02:21:05;8.55;;;5.38;;
14738;SDS011;7461;52.440;13.540;2023-05-27T02:23:32;9.52;;;5.82;;
14738;SDS011;7461;52.440;13.540;2023-05-27T02:26:01;11.80;;;6.32;;
14738;SDS011;7461;52.440;13.540;2023-05-27T02:28:28;14.48;;;7.78;;
14738;SDS011;7461;52.440;13.540;2023-05-27T02:30:56;12.82;;;7.20;;
14738;SDS011;7461;52.440;13.540;2023-05-27T02:33:23;8.30;;;6.07;;
14738;SDS011;7461;52.440;13.540;2023-05-27T02:35:50;7.78;;;6.20;;
14738;SDS011;7461;52.440;13.540;2023-05-27T02:38:17;14.18;;;7.07;;
14738;SDS011;7461;52.440;13.540;2023-05-27T02:40:44;8.93;;;6.32;;
14738;SDS011;7461;52.440;13.540;2023-05-27T02:43:11;8.02;;;5.68;;
14738;SDS011;7461;52.440;13.540;2023-05-27T02:45:38;8.95;;;7.70;;
14738;SDS011;7461;52.440;13.540;2023-05-27T02:48:07;9.73;;;6.70;;
14738;SDS011;7461;52.440;13.540;2023-05-27T02:50:34;12.27;;;7.05;;
14738;SDS011;7461;52.440;13.540;2023-05-27T02:53:01;12.65;;;9.07;;
14738;SDS011;7461;52.440;13.540;2023-05-27T02:55:28;11.77;;;6.90;;
14738;SDS011;7461;52.440;13.540;2023-05-27T02:57:55;17.38;;;7.18;;
14738;SDS011;7461;52.440;13.540;2023-05-27T03:00:22;11.20;;;5.93;;
14738;SDS011;7461;52.440;13.540;2023-05-27T03:02:49;7.00;;;6.30;;
14738;SDS011;7461;52.440;13.540;2023-05-27T03:05:17;9.07;;;6.30;;
14738;SDS011;7461;52.440;13.540;2023-05-27T03:07:44;11.18;;;7.15;;
14738;SDS011;7461;52.440;13.540;2023-05-27T03:10:11;9.35;;;6.72;;
14738;SDS011;7461;52.440;13.540;2023-05-27T03:12:38;9.98;;;7.47;;
14738;SDS011;7461;52.440;13.540;2023-05-27T03:15:05;9.32;;;6.28;;
14738;SDS011;7461;52.440;13.540;2023-05-27T03:17:36;11.65;;;6.43;;
14738;SDS011;7461;52.440;13.540;2023-05-27T03:20:04;11.75;;;8.20;;
14738;SDS011;7461;52.440;13.540;2023-05-27T03:22:34;13.48;;;6.68;;
14738;SDS011;7461;52.440;13.540;2023-05-27T03:25:02;11.95;;;5.95;;
14738;SDS011;7461;52.440;13.540;2023-05-27T03:27:30;10.88;;;5.97;;
14738;SDS011;7461;52.440;13.540;2023-05-27T03:29:57;11.95;;;7.28;;
14738;SDS011;7461;52.440;13.540;2023-05-27T03:32:24;6.63;;;5.80;;
14738;SDS011;7461;52.440;13.540;2023-05-27T03:34:51;7.45;;;6.18;;
14738;SDS011;7461;52.440;13.540;2023-05-27T03:37:18;13.70;;;7.05;;
14738;SDS011;7461;52.440;13.540;2023-05-27T03:39:46;8.15;;;6.95;;
14738;SDS011;7461;52.440;13.540;2023-05-27T03:42:13;12.05;;;6.80;;
14738;SDS011;7461;52.440;13.540;2023-05-27T03:44:40;11.43;;;6.40;;
14738;SDS011;7461;52.440;13.540;2023-05-27T03:47:07;12.65;;;7.28;;
14738;SDS011;7461;52.440;13.540;2023-05-27T03:49:34;10.07;;;7.25;;
14738;SDS011;7461;52.440;13.540;2023-05-27T03:52:01;13.30;;;7.53;;
14738;SDS011;7461;52.440;13.540;2023-05-27T03:54:28;10.60;;;6.55;;
14738;SDS011;7461;52.440;13.540;2023-05-27T03:56:57;9.73;;;7.50;;
14738;SDS011;7461;52.440;13.540;2023-05-27T03:59:24;9.35;;;6.53;;
14738;SDS011;7461;52.440;13.540;2023-05-27T04:01:50;13.02;;;7.57;;
14738;SDS011;7461;52.440;13.540;2023-05-27T04:04:17;9.63;;;6.60;;
14738;SDS011;7461;52.440;13.540;2023-05-27T04:06:44;11.50;;;8.25;;
14738;SDS011;7461;52.440;13.540;2023-05-27T04:09:11;14.05;;;9.02;;
14738;SDS011;7461;52.440;13.540;2023-05-27T04:11:38;15.82;;;8.30;;
14738;SDS011;7461;52.440;13.540;2023-05-27T04:14:06;11.38;;;7.57;;
14738;SDS011;7461;52.440;13.540;2023-05-27T04:16:34;10.50;;;6.53;;
14738;SDS011;7461;52.440;13.540;2023-05-27T04:19:02;9.15;;;7.03;;
14738;SDS011;7461;52.440;13.540;2023-05-27T04:21:30;14.48;;;8.20;;
14738;SDS011;7461;52.440;13.540;2023-05-27T04:23:57;13.10;;;8.45;;
14738;SDS011;7461;52.440;13.540;2023-05-27T04:26:24;13.57;;;7.85;;
14738;SDS011;7461;52.440;13.540;2023-05-27T04:28:51;10.55;;;8.85;;
14738;SDS011;7461;52.440;13.540;2023-05-27T04:31:19;14.75;;;7.43;;
14738;SDS011;7461;52.440;13.540;2023-05-27T04:33:46;10.88;;;7.65;;
14738;SDS011;7461;52.440;13.540;2023-05-27T04:36:13;10.50;;;6.72;;
14738;SDS011;7461;52.440;13.540;2023-05-27T04:38:42;10.57;;;7.20;;
14738;SDS011;7461;52.440;13.540;2023-05-27T04:41:10;15.45;;;8.13;;
14738;SDS011;7461;52.440;13.540;2023-05-27T04:43:39;17.48;;;7.90;;
14738;SDS011;7461;52.440;13.540;2023-05-27T04:46:07;13.30;;;7.55;;
14738;SDS011;7461;52.440;13.540;2023-05-27T04:48:35;8.25;;;6.68;;
14738;SDS011;7461;52.440;13.540;2023-05-27T04:51:02;11.68;;;9.32;;
14738;SDS011;7461;52.440;13.540;2023-05-27T04:53:29;9.55;;;6.50;;
14738;SDS011;7461;52.440;13.540;2023-05-27T04:55:57;16.27;;;8.32;;
14738;SDS011;7461;52.440;13.540;2023-05-27T04:58:24;7.43;;;6.40;;
14738;SDS011;7461;52.440;13.540;2023-05-27T05:00:51;11.90;;;8.70;;
14738;SDS011;7461;52.440;13.540;2023-05-27T05:03:21;12.18;;;6.78;;
14738;SDS011;7461;52.440;13.540;2023-05-27T05:06:03;15.10;;;7.88;;
14738;SDS011;7461;52.440;13.540;2023-05-27T05:08:30;11.43;;;7.70;;
14738;SDS011;7461;52.440;13.540;2023-05-27T05:10:57;8.93;;;6.60;;
14738;SDS011;7461;52.440;13.540;2023-05-27T05:13:25;12.68;;;7.82;;
14738;SDS011;7461;52.440;13.540;2023-05-27T05:15:54;11.43;;;6.50;;
14738;SDS011;7461;52.440;13.540;2023-05-27T05:18:21;10.65;;;7.90;;
14738;SDS011;7461;52.440;13.540;2023-05-27T05:20:48;21.40;;;8.70;;
14738;SDS011;7461;52.440;13.540;2023-05-27T05:23:16;9.60;;;6.32;;
14738;SDS011;7461;52.440;13.540;2023-05-27T05:25:43;18.65;;;7.32;;
14738;SDS011;7461;52.440;13.540;2023-05-27T05:28:10;10.25;;;7.57;;
14738;SDS011;7461;52.440;13.540;2023-05-27T05:30:37;9.30;;;6.70;;
14738;SDS011;7461;52.440;13.540;2023-05-27T05:33:05;18.75;;;8.60;;
14738;SDS011;7461;52.440;13.540;2023-05-27T05:35:32;8.77;;;7.13;;
14738;SDS011;7461;52.440;13.540;2023-05-27T05:37:58;9.10;;;6.57;;
14738;SDS011;7461;52.440;13.540;2023-05-27T05:40:27;13.85;;;6.57;;
14738;SDS011;7461;52.440;13.540;2023-05-27T05:42:53;13.65;;;6.60;;
14738;SDS011;7461;52.440;13.540;2023-05-27T05:45:20;11.10;;;6.18;;
14738;SDS011;7461;52.440;13.540;2023-05-27T05:47:47;13.55;;;7.13;;
14738;SDS011;7461;52.440;13.540;2023-05-27T05:50:14;14.77;;;7.15;;
14738;SDS011;7461;52.440;13.540;2023-05-27T05:52:41;16.40;;;6.97;;
14738;SDS011;7461;52.440;13.540;2023-05-27T05:55:08;10.10;;;6.32;;
14738;SDS011;7461;52.440;13.540;2023-05-27T05:57:37;10.77;;;6.68;;
14738;SDS011;7461;52.440;13.540;2023-05-27T06:00:04;9.50;;;6.15;;
14738;SDS011;7461;52.440;13.540;2023-05-27T06:02:33;11.90;;;6.40;;
14738;SDS011;7461;52.440;13.540;2023-05-27T06:05:00;9.48;;;5.35;;
14738;SDS011;7461;52.440;13.540;2023-05-27T06:07:27;7.85;;;6.60;;
14738;SDS011;7461;52.440;13.540;2023-05-27T06:09:53;9.80;;;5.85;;
14738;SDS011;7461;52.440;13.540;2023-05-27T06:12:20;10.52;;;4.55;;
14738;SDS011;7461;52.440;13.540;2023-05-27T06:14:49;16.10;;;6.20;;
14738;SDS011;7461;52.440;13.540;2023-05-27T06:17:15;8.35;;;6.88;;
14738;SDS011;7461;52.440;13.540;2023-05-27T06:19:43;9.77;;;5.68;;
14738;SDS011;7461;52.440;13.540;2023-05-27T06:22:09;10.55;;;4.82;;
14738;SDS011;7461;52.440;13.540;2023-05-27T06:24:36;4.38;;;3.92;;
14738;SDS011;7461;52.440;13.540;2023-05-27T06:27:03;7.80;;;4.25;;
14738;SDS011;7461;52.440;13.540;2023-05-27T06:29:31;5.40;;;3.45;;
14738;SDS011;7461;52.440;13.540;2023-05-27T06:31:59;5.40;;;3.40;;
14738;SDS011;7461;52.440;13.540;2023-05-27T06:34:26;6.03;;;4.03;;
14738;SDS011;7461;52.440;13.540;2023-05-27T06:36:53;7.78;;;4.07;;
14738;SDS011;7461;52.440;13.540;2023-05-27T06:39:20;5.40;;;3.25;;
14738;SDS011;7461;52.440;13.540;2023-05-27T06:41:47;8.10;;;4.07;;
14738;SDS011;7461;52.440;13.540;2023-05-27T06:44:14;5.35;;;2.63;;
14738;SDS011;7461;52.440;13.540;2023-05-27T06:46:41;6.72;;;3.53;;
14738;SDS011;7461;52.440;13.540;2023-05-27T06:49:09;7.60;;;3.03;;
14738;SDS011;7461;52.440;13.540;2023-05-27T06:51:36;5.00;;;2.75;;
14738;SDS011;7461;52.440;13.540;2023-05-27T06:54:03;5.53;;;2.60;;
14738;SDS011;7461;52.440;13.540;2023-05-27T06:56:30;3.83;;;3.40;;
14738;SDS011;7461;52.440;13.540;2023-05-27T06:58:57;5.15;;;2.60;;
14738;SDS011;7461;52.440;13.540;2023-05-27T07:01:24;3.45;;;1.77;;
14738;SDS011;7461;52.440;13.540;2023-05-27T07:03:51;5.60;;;2.15;;
14738;SDS011;7461;52.440;13.540;2023-05-27T07:06:20;4.45;;;1.92;;
14738;SDS011;7461;52.440;13.540;2023-05-27T07:08:46;4.40;;;2.33;;
14738;SDS011;7461;52.440;13.540;2023-05-27T07:11:13;2.38;;;2.17;;
14738;SDS011;7461;52.440;13.540;2023-05-27T07:13:41;5.50;;;2.05;;
14738;SDS011;7461;52.440;13.540;2023-05-27T07:16:08;2.40;;;1.55;;
14738;SDS011;7461;52.440;13.540;2023-05-27T07:18:35;6.28;;;2.53;;
14738;SDS011;7461;52.440;13.540;2023-05-27T07:21:02;2.63;;;2.10;;
14738;SDS011;7461;52.440;13.540;2023-05-27T07:23:30;2.20;;;2.00;;
14738;SDS011;7461;52.440;13.540;2023-05-27T07:25:57;4.97;;;2.17;;
14738;SDS011;7461;52.440;13.540;2023-05-27T07:28:24;2.95;;;1.42;;
14738;SDS011;7461;52.440;13.540;2023-05-27T07:30:51;1.75;;;1.60;;
14738;SDS011;7461;52.440;13.540;2023-05-27T07:33:18;3.20;;;1.75;;
14738;SDS011;7461;52.440;13.540;2023-05-27T07:35:45;4.68;;;1.88;;
14738;SDS011;7461;52.440;13.540;2023-05-27T07:38:12;1.98;;;1.42;;
14738;SDS011;7461;52.440;13.540;2023-05-27T07:40:40;0.95;;;0.95;;
14738;SDS011;7461;52.440;13.540;2023-05-27T07:43:07;1.92;;;1.50;;
14738;SDS011;7461;52.440;13.540;2023-05-27T07:45:34;3.05;;;1.70;;
14738;SDS011;7461;52.440;13.540;2023-05-27T07:48:01;3.67;;;1.75;;
14738;SDS011;7461;52.440;13.540;2023-05-27T07:50:28;3.83;;;1.05;;
14738;SDS011;7461;52.440;13.540;2023-05-27T07:52:55;2.72;;;2.22;;
14738;SDS011;7461;52.440;13.540;2023-05-27T07:55:21;2.25;;;1.67;;
14738;SDS011;7461;52.440;13.540;2023-05-27T07:57:50;1.00;;;1.00;;
14738;SDS011;7461;52.440;13.540;2023-05-27T08:00:17;1.15;;;1.05;;
14738;SDS011;7461;52.440;13.540;2023-05-27T08:02:44;1.73;;;1.17;;
14738;SDS011;7461;52.440;13.540;2023-05-27T08:05:11;2.42;;;1.05;;
14738;SDS011;7461;52.440;13.540;2023-05-27T08:07:38;1.20;;;1.10;;
14738;SDS011;7461;52.440;13.540;2023-05-27T08:10:05;1.60;;;1.13;;
14738;SDS011;7461;52.440;13.540;2023-05-27T08:12:34;1.42;;;1.33;;
14738;SDS011;7461;52.440;13.540;2023-05-27T08:15:02;0.77;;;0.68;;
14738;SDS011;7461;52.440;13.540;2023-05-27T08:17:29;1.83;;;1.08;;
14738;SDS011;7461;52.440;13.540;2023-05-27T08:19:56;1.83;;;1.25;;
14738;SDS011;7461;52.440;13.540;2023-05-27T08:22:23;1.13;;;0.98;;
14738;SDS011;7461;52.440;13.540;2023-05-27T08:24:50;1.80;;;0.95;;
14738;SDS011;7461;52.440;13.540;2023-05-27T08:27:17;2.88;;;1.77;;
14738;SDS011;7461;52.440;13.540;2023-05-27T08:29:46;2.67;;;1.92;;
14738;SDS011;7461;52.440;13.540;2023-05-27T08:32:14;1.95;;;1.42;;
14738;SDS011;7461;52.440;13.540;2023-05-27T08:34:41;2.50;;;1.75;;
14738;SDS011;7461;52.440;13.540;2023-05-27T08:37:08;1.00;;;0.90;;
14738;SDS011;7461;52.440;13.540;2023-05-27T08:39:35;1.17;;;0.80;;
14738;SDS011;7461;52.440;13.540;2023-05-27T08:45:24;1.50;;;1.40;;
14738;SDS011;7461;52.440;13.540;2023-05-27T08:47:53;1.08;;;0.98;;
14738;SDS011;7461;52.440;13.540;2023-05-27T08:50:20;1.67;;;1.23;;
14738;SDS011;7461;52.440;13.540;2023-05-27T08:52:47;2.22;;;1.38;;
14738;SDS011;7461;52.440;13.540;2023-05-27T08:55:19;1.27;;;1.17;;
14738;SDS011;7461;52.440;13.540;2023-05-27T08:57:48;1.50;;;0.90;;
14738;SDS011;7461;52.440;13.540;2023-05-27T09:00:17;2.13;;;1.17;;
14738;SDS011;7461;52.440;13.540;2023-05-27T09:02:44;1.45;;;1.35;;
14738;SDS011;7461;52.440;13.540;2023-05-27T09:05:13;2.90;;;1.33;;
14738;SDS011;7461;52.440;13.540;2023-05-27T09:07:41;3.30;;;2.05;;
14738;SDS011;7461;52.440;13.540;2023-05-27T09:10:08;0.98;;;0.80;;
14738;SDS011;7461;52.440;13.540;2023-05-27T09:12:35;1.58;;;1.48;;
14738;SDS011;7461;52.440;13.540;2023-05-27T09:15:02;0.95;;;0.88;;
14738;SDS011;7461;52.440;13.540;2023-05-27T09:17:30;1.33;;;1.20;;
14738;SDS011;7461;52.440;13.540;2023-05-27T09:19:57;3.88;;;1.60;;
14738;SDS011;7461;52.440;13.540;2023-05-27T09:22:29;1.58;;;1.00;;
14738;SDS011;7461;52.440;13.540;2023-05-27T09:24:56;1.77;;;1.20;;
14738;SDS011;7461;52.440;13.540;2023-05-27T09:27:24;1.73;;;1.38;;
14738;SDS011;7461;52.440;13.540;2023-05-27T09:29:51;0.98;;;0.98;;
14738;SDS011;7461;52.440;13.540;2023-05-27T09:32:25;2.88;;;1.67;;
14738;SDS011;7461;52.440;13.540;2023-05-27T09:34:53;2.15;;;1.60;;
14738;SDS011;7461;52.440;13.540;2023-05-27T09:37:23;2.28;;;1.33;;
14738;SDS011;7461;52.440;13.540;2023-05-27T09:39:57;1.80;;;1.70;;
14738;SDS011;7461;52.440;13.540;2023-05-27T09:42:24;1.10;;;1.10;;
14738;SDS011;7461;52.440;13.540;2023-05-27T09:44:51;1.75;;;1.50;;
14738;SDS011;7461;52.440;13.540;2023-05-27T09:47:20;2.40;;;1.55;;
14738;SDS011;7461;52.440;13.540;2023-05-27T09:49:49;1.65;;;1.55;;
14738;SDS011;7461;52.440;13.540;2023-05-27T09:52:19;1.42;;;1.20;;
14738;SDS011;7461;52.440;13.540;2023-05-27T09:54:49;1.67;;;1.58;;
14738;SDS011;7461;52.440;13.540;2023-05-27T09:57:17;2.08;;;1.40;;
14738;SDS011;7461;52.440;13.540;2023-05-27T09:59:45;1.67;;;1.58;;
14738;SDS011;7461;52.440;13.540;2023-05-27T10:04:41;2.28;;;2.08;;
14738;SDS011;7461;52.440;13.540;2023-05-27T10:07:09;1.60;;;1.50;;
14738;SDS011;7461;52.440;13.540;2023-05-27T10:09:36;1.55;;;1.50;;
14738;SDS011;7461;52.440;13.540;2023-05-27T10:12:05;2.03;;;1.83;;
14738;SDS011;7461;52.440;13.540;2023-05-27T10:14:32;1.92;;;1.83;;
14738;SDS011;7461;52.440;13.540;2023-05-27T10:17:00;3.30;;;1.80;;
14738;SDS011;7461;52.440;13.540;2023-05-27T10:19:27;2.25;;;2.05;;
14738;SDS011;7461;52.440;13.540;2023-05-27T10:21:54;2.40;;;2.22;;
14738;SDS011;7461;52.440;13.540;2023-05-27T10:24:30;3.70;;;3.28;;
14738;SDS011;7461;52.440;13.540;2023-05-27T10:26:59;2.42;;;2.22;;
14738;SDS011;7461;52.440;13.540;2023-05-27T10:29:35;2.83;;;2.63;;
14738;SDS011;7461;52.440;13.540;2023-05-27T10:32:03;3.58;;;3.10;;
14738;SDS011;7461;52.440;13.540;2023-05-27T10:34:33;4.03;;;3.72;;
14738;SDS011;7461;52.440;13.540;2023-05-27T10:37:01;3.55;;;1.95;;
14738;SDS011;7461;52.440;13.540;2023-05-27T10:39:28;3.22;;;3.03;;
14738;SDS011;7461;52.440;13.540;2023-05-27T10:41:55;2.70;;;2.50;;
14738;SDS011;7461;52.440;13.540;2023-05-27T10:44:26;4.63;;;4.22;;
14738;SDS011;7461;52.440;13.540;2023-05-27T10:47:00;3.03;;;2.50;;
14738;SDS011;7461;52.440;13.540;2023-05-27T10:49:28;2.58;;;2.38;;
14738;SDS011;7461;52.440;13.540;2023-05-27T10:52:05;1.98;;;1.88;;
14738;SDS011;7461;52.440;13.540;2023-05-27T10:54:36;2.63;;;2.42;;
14738;SDS011;7461;52.440;13.540;2023-05-27T10:57:03;3.35;;;2.53;;
14738;SDS011;7461;52.440;13.540;2023-05-27T10:59:34;3.17;;;2.42;;
14738;SDS011;7461;52.440;13.540;2023-05-27T11:02:07;2.13;;;2.00;;
14738;SDS011;7461;52.440;13.540;2023-05-27T11:04:35;2.58;;;2.45;;
14738;SDS011;7461;52.440;13.540;2023-05-27T11:07:02;2.90;;;2.70;;
14738;SDS011;7461;52.440;13.540;2023-05-27T11:09:30;2.92;;;2.15;;
14738;SDS011;7461;52.440;13.540;2023-05-27T11:12:08;1.40;;;1.30;;
14738;SDS011;7461;52.440;13.540;2023-05-27T11:14:41;2.38;;;1.70;;
14738;SDS011;7461;52.440;13.540;2023-05-27T11:17:10;2.03;;;1.92;;
14738;SDS011;7461;52.440;13.540;2023-05-27T11:19:38;2.55;;;1.80;;
14738;SDS011;7461;52.440;13.540;2023-05-27T11:22:05;1.75;;;1.65;;
14738;SDS011;7461;52.440;13.540;2023-05-27T11:24:32;2.22;;;2.00;;
14738;SDS011;7461;52.440;13.540;2023-05-27T11:26:59;2.00;;;1.80;;
14738;SDS011;7461;52.440;13.540;2023-05-27T11:29:27;2.13;;;1.92;;
14738;SDS011;7461;52.440;13.540;2023-05-27T11:31:54;2.90;;;2.17;;
14738;SDS011;7461;52.440;13.540;2023-05-27T11:34:23;2.25;;;1.83;;
14738;SDS011;7461;52.440;13.540;2023-05-27T11:36:50;1.88;;;1.77;;
14738;SDS011;7461;52.440;13.540;2023-05-27T11:39:17;2.10;;;1.90;;
14738;SDS011;7461;52.440;13.540;2023-05-27T11:41:48;2.13;;;1.90;;
14738;SDS011;7461;52.440;13.540;2023-05-27T11:44:17;2.17;;;1.90;;
14738;SDS011;7461;52.440;13.540;2023-05-27T11:46:45;2.17;;;1.95;;
14738;SDS011;7461;52.440;13.540;2023-05-27T11:49:13;2.65;;;2.33;;
14738;SDS011;7461;52.440;13.540;2023-05-27T11:51:44;2.05;;;1.85;;
14738;SDS011;7461;52.440;13.540;2023-05-27T11:54:20;4.53;;;1.60;;
14738;SDS011;7461;52.440;13.540;2023-05-27T11:56:49;6.75;;;2.65;;
14738;SDS011;7461;52.440;13.540;2023-05-27T11:59:17;4.88;;;2.70;;
14738;SDS011;7461;52.440;13.540;2023-05-27T12:01:44;1.63;;;1.50;;
14738;SDS011;7461;52.440;13.540;2023-05-27T12:04:12;2.97;;;1.80;;
14738;SDS011;7461;52.440;13.540;2023-05-27T12:06:39;2.08;;;1.98;;
14738;SDS011;7461;52.440;13.540;2023-05-27T12:09:08;1.88;;;1.73;;
14738;SDS011;7461;52.440;13.540;2023-05-27T12:11:35;3.05;;;2.47;;
14738;SDS011;7461;52.440;13.540;2023-05-27T12:14:04;2.65;;;1.92;;
14738;SDS011;7461;52.440;13.540;2023-05-27T12:16:31;2.08;;;1.98;;
14738;SDS011;7461;52.440;13.540;2023-05-27T12:18:59;2.22;;;1.92;;
14738;SDS011;7461;52.440;13.540;2023-05-27T12:21:25;2.42;;;2.05;;
14738;SDS011;7461;52.440;13.540;2023-05-27T12:23:53;2.45;;;2.28;;
14738;SDS011;7461;52.440;13.540;2023-05-27T12:26:22;2.05;;;1.85;;
14738;SDS011;7461;52.440;13.540;2023-05-27T12:28:49;2.20;;;1.95;;
14738;SDS011;7461;52.440;13.540;2023-05-27T12:31:16;3.00;;;2.08;;
14738;SDS011;7461;52.440;13.540;2023-05-27T12:33:44;2.75;;;1.98;;
14738;SDS011;7461;52.440;13.540;2023-05-27T12:36:11;1.77;;;1.67;;
14738;SDS011;7461;52.440;13.540;2023-05-27T12:38:38;1.55;;;1.45;;
14738;SDS011;7461;52.440;13.540;2023-05-27T12:41:04;2.97;;;2.47;;
14738;SDS011;7461;52.440;13.540;2023-05-27T12:43:33;2.38;;;1.83;;
14738;SDS011;7461;52.440;13.540;2023-05-27T12:46:00;1.52;;;1.42;;
14738;SDS011;7461;52.440;13.540;2023-05-27T12:48:27;2.55;;;2.38;;
14738;SDS011;7461;52.440;13.540;2023-05-27T12:50:54;2.35;;;1.70;;
14738;SDS011;7461;52.440;13.540;2023-05-27T12:53:21;2.47;;;2.05;;
14738;SDS011;7461;52.440;13.540;2023-05-27T12:55:49;2.20;;;2.10;;
14738;SDS011;7461;52.440;13.540;2023-05-27T12:58:16;3.15;;;2.92;;
14738;SDS011;7461;52.440;13.540;2023-05-27T13:00:44;6.57;;;2.47;;
14738;SDS011;7461;52.440;13.540;2023-05-27T13:03:11;3.15;;;2.05;;
14738;SDS011;7461;52.440;13.540;2023-05-27T13:05:38;4.82;;;1.98;;
14738;SDS011;7461;52.440;13.540;2023-05-27T13:08:05;2.40;;;1.98;;
14738;SDS011;7461;52.440;13.540;2023-05-27T13:10:32;3.13;;;2.53;;
14738;SDS011;7461;52.440;13.540;2023-05-27T13:12:59;2.30;;;2.00;;
14738;SDS011;7461;52.440;13.540;2023-05-27T13:15:28;2.40;;;1.67;;
14738;SDS011;7461;52.440;13.540;2023-05-27T13:17:57;3.05;;;1.90;;
14738;SDS011;7461;52.440;13.540;2023-05-27T13:20:24;2.35;;;2.10;;
14738;SDS011;7461;52.440;13.540;2023-05-27T13:22:53;1.77;;;1.67;;
14738;SDS011;7461;52.440;13.540;2023-05-27T13:25:24;2.50;;;2.30;;
14738;SDS011;7461;52.440;13.540;2023-05-27T13:27:52;2.50;;;2.30;;
14738;SDS011;7461;52.440;13.540;2023-05-27T13:30:19;1.98;;;1.77;;
14738;SDS011;7461;52.440;13.540;2023-05-27T13:32:47;2.25;;;2.05;;
14738;SDS011;7461;52.440;13.540;2023-05-27T13:35:15;2.95;;;2.58;;
14738;SDS011;7461;52.440;13.540;2023-05-27T13:37:42;2.05;;;1.95;;
14738;SDS011;7461;52.440;13.540;2023-05-27T13:40:10;1.85;;;1.70;;
14738;SDS011;7461;52.440;13.540;2023-05-27T13:42:37;2.58;;;2.38;;
14738;SDS011;7461;52.440;13.540;2023-05-27T13:45:06;2.55;;;2.30;;
14738;SDS011;7461;52.440;13.540;2023-05-27T13:47:33;3.13;;;2.92;;
14738;SDS011;7461;52.440;13.540;2023-05-27T13:50:04;2.17;;;1.88;;
14738;SDS011;7461;52.440;13.540;2023-05-27T13:52:33;2.70;;;1.98;;
14738;SDS011;7461;52.440;13.540;2023-05-27T13:55:00;1.83;;;1.73;;
14738;SDS011;7461;52.440;13.540;2023-05-27T13:57:28;3.17;;;1.77;;
14738;SDS011;7461;52.440;13.540;2023-05-27T13:59:55;4.00;;;2.17;;
14738;SDS011;7461;52.440;13.540;2023-05-27T14:02:22;2.33;;;2.10;;
14738;SDS011;7461;52.440;13.540;2023-05-27T14:04:49;2.30;;;2.08;;
14738;SDS011;7461;52.440;13.540;2023-05-27T14:07:16;3.30;;;1.98;;
14738;SDS011;7461;52.440;13.540;2023-05-27T14:09:45;1.60;;;1.50;;
14738;SDS011;7461;52.440;13.540;2023-05-27T14:12:12;1.80;;;1.70;;
14738;SDS011;7461;52.440;13.540;2023-05-27T14:14:38;3.95;;;2.13;;
14738;SDS011;7461;52.440;13.540;2023-05-27T14:17:06;2.67;;;2.33;;
14738;SDS011;7461;52.440;13.540;2023-05-27T14:19:33;1.98;;;1.88;;
14738;SDS011;7461;52.440;13.540;2023-05-27T14:22:00;1.88;;;1.75;;
14738;SDS011;7461;52.440;13.540;2023-05-27T14:24:27;3.78;;;1.90;;
14738;SDS011;7461;52.440;13.540;2023-05-27T14:26:57;1.65;;;1.55;;
14738;SDS011;7461;52.440;13.540;2023-05-27T14:29:24;2.03;;;1.63;;
14738;SDS011;7461;52.440;13.540;2023-05-27T14:31:50;1.83;;;1.67;;
14738;SDS011;7461;52.440;13.540;2023-05-27T14:34:18;1.95;;;1.85;;
14738;SDS011;7461;52.440;13.540;2023-05-27T14:36:45;1.63;;;1.15;;
14738;SDS011;7461;52.440;13.540;2023-05-27T14:39:12;2.60;;;2.40;;
14738;SDS011;7461;52.440;13.540;2023-05-27T14:41:40;2.10;;;1.95;;
14738;SDS011;7461;52.440;13.540;2023-05-27T14:44:08;2.88;;;2.13;;
14738;SDS011;7461;52.440;13.540;2023-05-27T14:46:35;3.60;;;1.55;;
14738;SDS011;7461;52.440;13.540;2023-05-27T14:49:02;2.50;;;1.52;;
14738;SDS011;7461;52.440;13.540;2023-05-27T14:51:29;3.63;;;1.67;;
14738;SDS011;7461;52.440;13.540;2023-05-27T14:53:56;2.15;;;2.00;;